Airfield :
LOGIN :

Register | Disclaimer

   EN    FR    IT 

 










Legend :    VFR   Marginal VFR   IFR   Intensive IFR   Very Intensive IFR
Visi :
Ceiling :
>= 8 km
>= 3000ft
5 to 8 km
1000 to 3000 ft
1500m to 5 km
500 to 1000 ft
800 to 1500m
200 to 500 ft
< 800m
< 200 ft
Symbols :   Thunderstorms  Fog  Heavy snow  Heavy precipitations  Wind > 20 kt
SIGMETs :     Misc.  Thunderstorms  Icing  Turbulence  Mountain Waves  Volcanic Ashes







- Airport Elevation : 1830 ft


EBLB - Butgenbach Elsenborn

CURRENT METAR :
  • 211605Z AUTO 18005KT 7000 SCT005/// BKN091/// M01/M01 Q1015 YLO

EXPIRED METARs :
  • 211555Z AUTO 19004KT 7000 FEW005/// BKN093/// M01/M01 Q1015 WHT
  • 211550Z AUTO 18004KT 6000 FEW005/// SCT006/// BKN093/// M01/M01 Q1015 YLO
  • 211525Z AUTO 18003KT 8000 SCT007/// BKN088/// M01/M01 Q1015 GRN
  • 211516Z AUTO VRB02KT 8000 FEW007/// SCT012/// BKN094/// M01/M01 Q1015 GRN
  • 211455Z AUTO 19003KT 9999 SCT006/// BKN110/// M01/M01 Q1015 YLO
  • 211445Z AUTO 19003KT 9999 SCT006/// BKN120/// BKN160/// M00/M01 Q1015 YLO
  • 211425Z AUTO VRB02KT 9999 FEW006/// BKN160/// M00/M01 Q1015 BLU
  • 211355Z AUTO 22003KT 9999 FEW016/// M00/M02 Q1015 BLU
  • 211325Z AUTO 24003KT 9999 BKN011/// M00/M02 Q1015 GRN

Expired Forecast.
No reported NOTAMs for that airfield.



MET'MAP, your aeronautical weather chart ! - Copyright ORBIFLY December 2007 - Disclaimer

ORBIFLY MET'MAP TEAM :

Programming & Development : Alexandra Zaïnal
Concept & Development : Baudouin d'Aumeries
Co-Development & Prog : Marc-Olivier Méhu
Technical & hardware support : Manuel Goepfert

Contact : metmap@orbifly.com




SOURCES & CREDITS :

   NOAA